Time;durP1;ratioP1;P1;durP2;ratioP2;P2;SDS_P1;SDS_P2;PMS_P1;PMS_P2;Temp;Humidity;BMP_temperature;BMP_pressure;BME280_temperature;BME280_humidity;BME280_pressure;Samples;Min_cycle;Max_cycle;Signal;HPM_P1;HPM_P2
2022/04/02 00:01:17;;;;;;;59.10;17.35;;;;;;;1.60;62.15;98484.63;5074654;28;20029;-76
2022/04/02 00:03:42;;;;;;;56.20;16.08;;;;;;;1.54;62.22;98475.41;5074335;28;20024;-76
2022/04/02 00:06:08;;;;;;;50.38;14.57;;;;;;;1.51;63.11;98478.03;5056178;28;20033;-77
2022/04/02 00:08:34;;;;;;;49.53;13.45;;;;;;;1.58;62.98;98492.38;5074644;28;20116;-76
2022/04/02 00:11:00;;;;;;;71.55;17.58;;;;;;;1.54;62.55;98488.22;5074318;28;20077;-77
2022/04/02 00:13:25;;;;;;;16.50;7.38;;;;;;;1.45;63.28;98468.81;5074590;28;20025;-76
2022/04/02 00:15:51;;;;;;;52.95;15.60;;;;;;;1.52;63.24;98481.44;5074319;28;20036;-76
2022/04/02 00:18:16;;;;;;;27.83;10.63;;;;;;;1.48;63.09;98473.88;5074296;28;20033;-76
2022/04/02 00:20:42;;;;;;;53.35;16.45;;;;;;;1.48;62.53;98478.16;5074444;28;20041;-76
2022/04/02 00:25:51;;;;;;;15.93;7.45;;;;;;;1.39;63.54;98465.56;5073932;28;20515;-76
2022/04/02 00:28:17;;;;;;;33.90;10.18;;;;;;;1.33;64.34;98461.47;5056089;28;20052;-76
2022/04/02 00:30:43;;;;;;;19.58;7.55;;;;;;;1.43;64.49;98482.56;5074004;28;20020;-76
2022/04/02 00:33:09;;;;;;;26.25;9.15;;;;;;;1.41;64.26;98492.88;5056090;28;20024;-76
2022/04/02 00:35:34;;;;;;;22.77;8.15;;;;;;;1.37;64.78;98483.56;5074140;28;20028;-76
2022/04/02 00:37:59;;;;;;;15.18;6.53;;;;;;;1.46;63.76;98487.59;5073806;28;20028;-76
2022/04/02 00:40:25;;;;;;;26.48;8.32;;;;;;;1.39;64.19;98483.53;5074266;28;20028;-76
2022/04/02 00:42:51;;;;;;;41.00;13.05;;;;;;;1.41;64.66;98486.91;5073574;28;20487;-76
2022/04/02 00:45:16;;;;;;;24.40;9.30;;;;;;;1.34;64.97;98470.00;5073528;28;20028;-76
2022/04/02 00:47:42;;;;;;;14.65;7.65;;;;;;;1.41;64.93;98487.75;5073935;28;20357;-76
2022/04/02 00:50:08;;;;;;;21.10;8.15;;;;;;;1.29;65.36;98469.28;5073914;28;20036;-76
2022/04/02 00:52:33;;;;;;;36.92;13.27;;;;;;;1.33;65.59;98476.84;5073778;28;20043;-76
2022/04/02 00:54:59;;;;;;;20.52;8.88;;;;;;;1.35;66.09;98469.97;5073351;28;20403;-76
2022/04/02 00:57:24;;;;;;;21.52;8.63;;;;;;;1.31;66.33;98468.38;5073620;28;20024;-76
2022/04/02 00:59:50;;;;;;;15.23;7.75;;;;;;;1.31;66.45;98476.06;5073260;28;20462;-76
2022/04/02 01:02:16;;;;;;;18.50;8.38;;;;;;;1.35;66.42;98489.63;5073654;28;20028;-76
2022/04/02 01:04:41;;;;;;;20.58;7.75;;;;;;;1.22;68.12;98469.47;5073316;28;20085;-76
2022/04/02 01:07:07;;;;;;;16.55;7.97;;;;;;;1.23;70.76;98472.88;5073013;28;20017;-76
2022/04/02 01:09:32;;;;;;;11.45;6.88;;;;;;;1.22;73.01;98492.56;5073652;28;20064;-76
2022/04/02 01:11:58;;;;;;;21.08;9.80;;;;;;;1.06;74.70;98481.03;5073117;28;20024;-76
2022/04/02 01:14:24;;;;;;;15.40;7.10;;;;;;;1.00;77.10;98483.75;5073179;28;20082;-76
2022/04/02 01:16:50;;;;;;;20.80;8.07;;;;;;;0.97;78.00;98489.81;5072924;28;20024;-76
2022/04/02 01:19:16;;;;;;;11.63;6.60;;;;;;;0.94;80.34;98496.75;5073325;28;20033;-76
2022/04/02 01:21:46;;;;;;;17.25;8.68;;;;;;;0.91;81.81;98510.47;5073146;28;20078;-76
2022/04/02 01:24:11;;;;;;;23.27;9.88;;;;;;;0.81;82.04;98503.06;5072946;28;20078;-76
2022/04/02 01:26:37;;;;;;;16.67;8.25;;;;;;;0.78;83.24;98511.66;5073034;28;20024;-76
2022/04/02 01:29:03;;;;;;;27.13;11.32;;;;;;;0.75;85.14;98516.84;5072670;28;20499;-76
2022/04/02 01:31:29;;;;;;;13.98;6.72;;;;;;;0.56;87.59;98498.56;5055117;28;20028;-76
2022/04/02 01:33:55;;;;;;;21.75;9.10;;;;;;;0.42;89.08;98488.66;5072533;28;20032;-76
2022/04/02 01:36:22;;;;;;;19.60;9.27;;;;;;;0.49;90.89;98518.34;5072963;28;20025;-76
2022/04/02 01:38:48;;;;;;;19.77;8.18;;;;;;;0.33;91.32;98499.09;5072786;28;20060;-77
2022/04/02 01:41:14;;;;;;;14.55;7.28;;;;;;;0.39;92.73;98519.44;5072484;28;20036;-76
2022/04/02 01:43:40;;;;;;;21.98;9.27;;;;;;;0.38;93.30;98527.16;5072502;28;20048;-76
2022/04/02 01:46:05;;;;;;;20.73;9.85;;;;;;;0.30;93.36;98517.13;5054283;28;20145;-76
2022/04/02 01:48:32;;;;;;;18.50;9.40;;;;;;;0.18;93.62;98513.09;5072763;28;20051;-76
2022/04/02 01:50:58;;;;;;;14.10;6.78;;;;;;;0.16;94.41;98507.16;5072448;28;20068;-76
2022/04/02 01:53:24;;;;;;;15.13;7.78;;;;;;;0.13;94.47;98507.25;5072524;28;20096;-77
2022/04/02 01:55:51;;;;;;;15.98;8.38;;;;;;;0.19;94.63;98526.75;5071910;28;20032;-77
2022/04/02 01:58:17;;;;;;;18.02;8.75;;;;;;;0.14;95.36;98524.28;5054366;28;20147;-76
2022/04/02 02:00:43;;;;;;;19.13;8.85;;;;;;;0.06;95.03;98515.94;5072538;28;20028;-76
2022/04/02 02:03:09;;;;;;;15.77;8.88;;;;;;;0.09;95.53;98513.31;5072159;28;20431;-76
2022/04/02 02:05:35;;;;;;;16.42;8.20;;;;;;;0.11;96.79;98531.19;5072238;28;20028;-76
2022/04/02 02:08:01;;;;;;;25.98;10.57;;;;;;;0.01;97.86;98530.56;5071932;28;20464;-76
2022/04/02 02:10:27;;;;;;;30.88;13.18;;;;;;;-0.04;97.85;98532.41;5072166;28;20036;-76
2022/04/02 02:12:52;;;;;;;14.82;7.68;;;;;;;-0.03;98.78;98539.19;5053839;28;20028;-76
2022/04/02 02:15:17;;;;;;;21.48;11.00;;;;;;;-0.10;99.91;98528.22;5072327;28;20029;-76
2022/04/02 02:17:47;;;;;;;19.50;8.80;;;;;;;-0.15;100.00;98524.94;5072273;28;20419;-76
2022/04/02 02:20:13;;;;;;;24.83;10.80;;;;;;;-0.21;100.00;98509.72;5072095;28;20039;-76
2022/04/02 02:22:40;;;;;;;25.38;11.40;;;;;;;-0.18;100.00;98521.59;5071994;28;20021;-76
2022/04/02 02:25:07;;;;;;;21.52;9.70;;;;;;;-0.16;100.00;98524.97;5071688;28;20082;-76
2022/04/02 02:27:32;;;;;;;17.38;9.23;;;;;;;-0.17;100.00;98530.94;5071824;28;20039;-76
2022/04/02 02:29:57;;;;;;;14.50;8.00;;;;;;;-0.18;100.00;98526.72;5071897;28;20111;-76
2022/04/02 02:32:23;;;;;;;23.05;11.00;;;;;;;-0.20;100.00;98518.25;5072081;28;20087;-76
2022/04/02 02:37:32;;;;;;;22.25;11.40;;;;;;;-0.24;100.00;98534.53;5071886;28;20039;-76
2022/04/02 02:39:58;;;;;;;18.83;9.05;;;;;;;-0.32;100.00;98525.28;5071571;28;20037;-76
2022/04/02 02:42:24;;;;;;;15.05;8.55;;;;;;;-0.28;100.00;98531.19;5054185;28;20471;-76
2022/04/02 02:44:49;;;;;;;16.38;8.80;;;;;;;-0.34;100.00;98536.41;5072041;28;20108;-76
2022/04/02 02:47:15;;;;;;;19.42;10.70;;;;;;;-0.46;100.00;98519.63;5071556;28;20056;-76
2022/04/02 02:49:40;;;;;;;21.33;10.10;;;;;;;-0.36;100.00;98546.69;5071691;28;20035;-76
2022/04/02 02:52:06;;;;;;;21.15;12.25;;;;;;;-0.39;100.00;98545.91;5071560;28;20082;-76
2022/04/02 02:54:32;;;;;;;19.15;10.82;;;;;;;-0.42;100.00;98535.72;5071684;28;20028;-76
2022/04/02 02:56:58;;;;;;;18.20;9.63;;;;;;;-0.55;100.00;98530.88;5071714;28;20028;-76
2022/04/02 02:59:24;;;;;;;13.38;7.90;;;;;;;-0.49;100.00;98540.16;5071886;28;20063;-76
2022/04/02 03:01:49;;;;;;;21.70;10.68;;;;;;;-0.43;100.00;98555.34;5072063;28;20032;-76
2022/04/02 03:04:14;;;;;;;15.40;9.55;;;;;;;-0.56;100.00;98539.41;5071237;28;20427;-77
2022/04/02 03:06:40;;;;;;;15.23;9.10;;;;;;;-0.51;100.00;98554.66;5071537;28;20435;-76
2022/04/02 03:09:05;;;;;;;21.35;10.65;;;;;;;-0.55;100.00;98538.56;5075328;28;20069;-76
2022/04/02 03:11:30;;;;;;;17.17;9.18;;;;;;;-0.55;100.00;98537.69;5075811;28;20083;-76
2022/04/02 03:13:56;;;;;;;19.58;10.82;;;;;;;-0.58;100.00;98551.41;5075329;28;20020;-76
2022/04/02 03:16:21;;;;;;;24.48;11.68;;;;;;;-0.56;100.00;98559.88;5057605;28;20376;-76
2022/04/02 03:18:47;;;;;;;22.23;12.45;;;;;;;-0.60;100.00;98554.84;5075496;28;20030;-76
2022/04/02 03:21:13;;;;;;;16.60;10.20;;;;;;;-0.73;100.00;98544.00;5057154;28;20025;-76
2022/04/02 03:23:38;;;;;;;16.38;10.18;;;;;;;-0.69;100.00;98549.91;5075206;28;20112;-76
2022/04/02 03:26:03;;;;;;;16.98;10.35;;;;;;;-0.81;100.00;98533.09;5075343;28;20036;-76
2022/04/02 03:28:29;;;;;;;18.58;10.40;;;;;;;-0.78;100.00;98550.94;5075476;28;20104;-76
2022/04/02 03:30:54;;;;;;;19.65;11.82;;;;;;;-0.76;100.00;98556.84;5075263;28;20021;-76
2022/04/02 03:33:20;;;;;;;19.67;10.93;;;;;;;-0.80;100.00;98557.78;5074932;28;20032;-77
2022/04/02 03:35:46;;;;;;;16.40;11.00;;;;;;;-1.02;100.00;98531.75;5057122;28;20424;-76
2022/04/02 03:38:11;;;;;;;26.45;11.00;;;;;;;-1.07;100.00;98533.56;5074741;28;20028;-77
2022/04/02 03:40:37;;;;;;;19.17;11.27;;;;;;;-0.95;100.00;98565.72;5057311;28;20024;-76
2022/04/02 03:43:04;;;;;;;80.97;34.67;;;;;;;-1.05;100.00;98555.69;5074954;28;20074;-76
2022/04/02 03:45:30;;;;;;;56.10;24.25;;;;;;;-1.01;100.00;98557.31;5074794;28;20073;-75
2022/04/02 03:47:55;;;;;;;77.65;23.23;;;;;;;-1.08;100.00;98550.59;5074931;28;20100;-77
2022/04/02 03:50:20;;;;;;;75.22;22.40;;;;;;;-1.02;100.00;98570.09;5075017;28;20434;-76
2022/04/02 03:52:46;;;;;;;52.65;18.35;;;;;;;-1.04;100.00;98565.03;5074908;28;20032;-76
2022/04/02 03:55:12;;;;;;;57.70;20.40;;;;;;;-1.07;100.00;98562.50;5074616;28;20035;-77
2022/04/02 03:57:39;;;;;;;39.03;16.50;;;;;;;-1.14;100.00;98550.69;5074882;28;20521;-76
2022/04/02 04:00:06;;;;;;;31.08;14.48;;;;;;;-1.16;100.00;98549.06;5056690;28;20032;-76
2022/04/02 04:02:32;;;;;;;38.00;14.55;;;;;;;-1.18;100.00;98548.22;5074634;28;20494;-76
2022/04/02 04:04:59;;;;;;;26.98;13.45;;;;;;;-1.09;100.00;98561.72;5074518;28;20028;-76
2022/04/02 04:07:25;;;;;;;21.60;11.85;;;;;;;-1.11;100.00;98563.44;5074386;28;20098;-76
2022/04/02 04:09:50;;;;;;;29.15;14.35;;;;;;;-1.12;100.00;98546.41;5074710;28;20464;-76
2022/04/02 04:12:17;;;;;;;30.52;15.45;;;;;;;-1.14;100.00;98545.59;5074415;28;20103;-76
2022/04/02 04:14:43;;;;;;;35.95;18.33;;;;;;;-1.09;100.00;98548.94;5074482;28;20021;-76
2022/04/02 04:17:09;;;;;;;24.33;12.20;;;;;;;-0.98;100.00;98565.78;5074429;28;20085;-76
2022/04/02 04:19:34;;;;;;;19.02;11.63;;;;;;;-0.94;100.00;98569.97;5073874;28;20461;-77
2022/04/02 04:22:00;;;;;;;16.33;10.32;;;;;;;-0.92;100.00;98571.63;5073930;28;20036;-76
2022/04/02 04:24:25;;;;;;;14.95;9.45;;;;;;;-0.91;100.00;98572.47;5074403;28;20020;-76
2022/04/02 04:26:51;;;;;;;20.08;10.25;;;;;;;-0.97;100.00;98564.91;5056216;28;20589;-76
2022/04/02 04:29:16;;;;;;;21.00;11.65;;;;;;;-1.02;100.00;98554.75;5074053;28;20020;-76
2022/04/02 04:31:42;;;;;;;23.63;11.52;;;;;;;-0.98;100.00;98564.06;5074078;28;20472;-76
2022/04/02 04:34:07;;;;;;;24.60;12.73;;;;;;;-0.88;100.00;98583.50;5073909;28;20063;-75
2022/04/02 04:36:33;;;;;;;38.17;15.48;;;;;;;-0.97;100.00;98563.19;5073865;28;20032;-76
2022/04/02 04:38:59;;;;;;;38.75;16.15;;;;;;;-0.85;100.00;98588.53;5074458;28;20368;-76
2022/04/02 04:41:24;;;;;;;39.53;15.38;;;;;;;-0.95;100.00;98573.41;5073593;28;20032;-76
2022/04/02 04:43:50;;;;;;;28.92;12.65;;;;;;;-0.82;100.00;98598.72;5073988;28;20027;-76
2022/04/02 04:46:17;;;;;;;36.08;14.88;;;;;;;-0.83;100.00;98599.59;5073593;28;20404;-76
2022/04/02 04:48:43;;;;;;;16.20;9.15;;;;;;;-0.85;100.00;98600.47;5074105;28;20031;-76
2022/04/02 04:51:09;;;;;;;19.42;9.45;;;;;;;-0.98;100.00;98576.84;5073402;28;20107;-76
2022/04/02 04:53:36;;;;;;;22.75;10.23;;;;;;;-0.95;100.00;98584.47;5055866;28;20021;-77
2022/04/02 04:56:01;;;;;;;12.77;8.63;;;;;;;-0.84;100.00;98594.50;5073498;28;20118;-76
2022/04/02 04:58:29;;;;;;;16.48;8.82;;;;;;;-0.86;100.00;98598.78;5073916;28;20031;-76
2022/04/02 05:00:56;;;;;;;13.07;9.88;;;;;;;-0.98;100.00;98584.50;5073554;28;20030;-76
2022/04/02 05:03:25;;;;;;;16.70;8.13;;;;;;;-0.90;100.00;98586.94;5073126;28;20029;-76
2022/04/02 05:05:54;;;;;;;14.10;7.57;;;;;;;-0.84;100.00;98604.75;5073313;28;20060;-76
2022/04/02 05:08:21;;;;;;;20.25;8.32;;;;;;;-0.87;100.00;98603.06;5073447;28;20086;-76
2022/04/02 05:10:46;;;;;;;15.38;9.13;;;;;;;-0.94;100.00;98586.13;5073508;28;20121;-76
2022/04/02 05:13:15;;;;;;;18.85;10.57;;;;;;;-0.88;100.00;98596.28;5073245;28;20449;-76
2022/04/02 05:15:42;;;;;;;14.13;7.85;;;;;;;-0.96;100.00;98566.59;5073350;28;20388;-76
2022/04/02 05:18:09;;;;;;;24.15;8.52;;;;;;;-0.82;99.37;98593.59;5072911;28;20020;-76
2022/04/02 05:20:35;;;;;;;19.55;9.00;;;;;;;-0.81;99.27;98589.31;5073359;28;20063;-76
2022/04/02 05:23:00;;;;;;;21.02;9.20;;;;;;;-0.81;99.27;98590.16;5073186;28;20024;-76
2022/04/02 05:25:26;;;;;;;15.38;9.38;;;;;;;-0.81;98.33;98581.66;5072686;28;20028;-76
2022/04/02 05:27:54;;;;;;;18.33;9.30;;;;;;;-0.72;97.56;98596.81;5073075;28;20112;-76
2022/04/02 05:30:20;;;;;;;17.23;7.85;;;;;;;-0.71;95.70;98601.09;5072009;28;20031;-76
2022/04/02 05:32:45;;;;;;;17.45;9.75;;;;;;;-0.81;95.42;98586.75;5072775;28;20029;-76
2022/04/02 05:35:11;;;;;;;13.55;7.93;;;;;;;-0.72;96.12;98601.09;5073122;28;20033;-76
2022/04/02 05:37:43;;;;;;;13.30;7.68;;;;;;;-0.72;96.69;98607.06;5073193;28;20110;-76
2022/04/02 05:40:09;;;;;;;15.18;7.78;;;;;;;-0.68;97.34;98603.56;5072599;28;20357;-76
2022/04/02 05:42:35;;;;;;;15.93;8.40;;;;;;;-0.68;96.68;98602.72;5072722;28;20024;-76
2022/04/02 05:45:00;;;;;;;15.77;8.18;;;;;;;-0.68;98.22;98600.16;5072702;28;20125;-76
2022/04/02 05:47:25;;;;;;;16.60;8.80;;;;;;;-0.68;98.04;98603.56;5072510;28;20193;-76
2022/04/02 05:49:52;;;;;;;13.43;7.72;;;;;;;-0.68;98.40;98608.69;5072870;28;20025;-76
2022/04/02 05:52:17;;;;;;;14.57;8.30;;;;;;;-0.64;99.18;98615.44;5072235;28;20113;-76
2022/04/02 05:54:43;;;;;;;14.65;7.70;;;;;;;-0.68;97.72;98595.06;5054408;28;20059;-76
2022/04/02 05:57:08;;;;;;;19.83;9.05;;;;;;;-0.59;98.01;98610.22;5072033;28;20024;-76
2022/04/02 05:59:34;;;;;;;16.63;8.48;;;;;;;-0.57;98.12;98609.34;5072174;28;20031;-76
2022/04/02 06:02:00;;;;;;;16.77;8.43;;;;;;;-0.53;96.86;98617.81;5072036;28;20090;-76
2022/04/02 06:04:28;;;;;;;13.30;7.90;;;;;;;-0.60;96.18;98601.72;5071968;28;20401;-76
2022/04/02 06:06:53;;;;;;;22.50;10.18;;;;;;;-0.56;96.37;98603.34;5071861;28;20028;-76
2022/04/02 06:09:19;;;;;;;19.65;11.55;;;;;;;-0.55;95.43;98601.63;5071815;28;20021;-76
2022/04/02 06:11:45;;;;;;;15.18;8.98;;;;;;;-0.42;94.47;98617.59;5071937;28;20032;-76
2022/04/02 06:14:13;;;;;;;14.75;8.27;;;;;;;-0.51;94.90;98596.44;5071757;28;20034;-76
2022/04/02 06:16:39;;;;;;;23.10;9.25;;;;;;;-0.25;94.96;98613.00;5071872;28;20111;-77
2022/04/02 06:19:04;;;;;;;19.05;8.88;;;;;;;-0.16;93.67;98612.00;5054128;28;20031;-77
2022/04/02 06:21:30;;;;;;;20.85;9.88;;;;;;;-0.14;93.02;98605.94;5071787;28;20025;-77
2022/04/02 06:23:55;;;;;;;13.35;7.60;;;;;;;0.06;91.43;98626.03;5054000;28;20021;-76
2022/04/02 06:26:20;;;;;;;14.82;7.25;;;;;;;0.12;90.80;98635.28;5071522;28;20420;-77
2022/04/02 06:28:46;;;;;;;16.05;8.95;;;;;;;-0.02;90.40;98600.59;5071996;28;20079;-77
2022/04/02 06:31:12;;;;;;;13.75;7.70;;;;;;;0.16;88.76;98614.72;5071556;28;20629;-76
2022/04/02 06:33:38;;;;;;;17.65;11.30;;;;;;;0.24;87.02;98629.91;5072219;28;20082;-76
2022/04/02 06:36:04;;;;;;;17.13;10.30;;;;;;;0.33;88.19;98632.28;5072145;28;20422;-77
2022/04/02 06:38:30;;;;;;;49.20;22.70;;;;;;;0.42;86.60;98641.47;5065674;28;20027;-79
2022/04/02 06:40:55;;;;;;;44.15;14.10;;;;;;;0.42;84.96;98632.09;5073848;28;20036;-77
2022/04/02 06:43:21;;;;;;;16.95;7.88;;;;;;;0.40;85.65;98609.94;5092332;28;20102;-79
2022/04/02 06:45:46;;;;;;;37.58;14.50;;;;;;;0.53;84.94;98613.91;5091697;28;20450;-80
2022/04/02 06:48:13;;;;;;;18.45;8.88;;;;;;;0.61;83.15;98613.75;5073927;28;20061;-75
2022/04/02 06:50:40;;;;;;;18.52;8.75;;;;;;;0.79;82.57;98631.25;5073790;28;20106;-76
2022/04/02 06:53:05;;;;;;;28.83;10.52;;;;;;;0.89;82.84;98624.19;5092155;28;20020;-76
2022/04/02 06:55:32;;;;;;;15.55;6.00;;;;;;;0.94;81.13;98630.03;5091379;28;20039;-77
2022/04/02 06:57:58;;;;;;;20.48;10.23;;;;;;;1.02;79.26;98635.84;5091618;28;20056;-75
2022/04/02 07:00:24;;;;;;;18.58;11.07;;;;;;;1.03;79.68;98624.69;5091329;28;20105;-75
2022/04/02 07:02:50;;;;;;;17.08;10.85;;;;;;;1.26;80.43;98652.31;5091866;28;20066;-76
2022/04/02 07:05:18;;;;;;;21.60;10.73;;;;;;;1.24;79.08;98624.16;5091435;28;20024;-75
2022/04/02 07:07:44;;;;;;;31.10;12.85;;;;;;;1.38;79.31;98625.53;5091671;28;20027;-75
2022/04/02 07:10:10;;;;;;;17.35;9.80;;;;;;;1.64;78.69;98624.81;5091410;28;20028;-77
2022/04/02 07:12:35;;;;;;;18.02;7.40;;;;;;;1.90;77.41;98629.28;5091548;28;20035;-80
2022/04/02 07:15:02;;;;;;;12.20;7.00;;;;;;;2.10;75.80;98647.50;5091478;28;20035;-79
2022/04/02 07:17:27;;;;;;;12.60;7.22;;;;;;;2.23;73.82;98638.59;5091573;28;20020;-77
2022/04/02 07:19:56;;;;;;;16.58;6.75;;;;;;;2.60;72.81;98613.50;5091661;28;20035;-76
2022/04/02 07:22:23;;;;;;;16.92;8.82;;;;;;;3.23;70.78;98644.03;5073282;28;20028;-76
2022/04/02 07:24:49;;;;;;;14.10;8.63;;;;;;;4.00;68.53;98643.97;5082722;28;20028;-76
2022/04/02 07:27:16;;;;;;;10.27;5.95;;;;;;;5.08;64.06;98645.88;5088199;28;20028;-76
2022/04/02 07:29:42;;;;;;;22.80;12.65;;;;;;;5.76;59.69;98647.31;5091443;28;20062;-76
2022/04/02 07:32:09;;;;;;;14.52;6.95;;;;;;;6.08;58.13;98635.63;5073590;28;20604;-76
2022/04/02 07:34:35;;;;;;;10.48;7.35;;;;;;;6.12;55.41;98642.31;5073496;28;20032;-76
2022/04/02 07:37:05;;;;;;;15.50;8.80;;;;;;;6.01;55.84;98641.94;5091618;28;20031;-76
2022/04/02 07:39:42;;;;;;;13.57;6.72;;;;;;;5.35;55.76;98662.84;5091252;28;20064;-76
2022/04/02 07:42:23;;;;;;;13.95;6.75;;;;;;;4.69;57.46;98662.88;5091261;28;20062;-76
2022/04/02 07:45:03;;;;;;;9.95;6.47;;;;;;;4.16;58.20;98665.69;5073447;28;20047;-76
2022/04/02 07:47:31;;;;;;;10.90;5.97;;;;;;;3.86;59.95;98659.91;5091033;28;20495;-77
2022/04/02 07:50:03;;;;;;;11.70;6.50;;;;;;;3.84;60.50;98672.03;5091270;28;20417;-77
2022/04/02 07:52:29;;;;;;;17.83;6.82;;;;;;;3.65;60.32;98666.66;5090864;28;20446;-76
2022/04/02 07:54:58;;;;;;;8.75;5.55;;;;;;;3.20;61.67;98669.00;5076704;28;20056;-77
2022/04/02 07:57:27;;;;;;;10.30;6.05;;;;;;;3.04;62.60;98675.56;5094773;28;20024;-76
2022/04/02 08:00:03;;;;;;;12.20;7.05;;;;;;;3.09;63.52;98682.25;5076723;28;20024;-80
2022/04/02 08:02:37;;;;;;;8.13;5.88;;;;;;;2.93;63.33;98674.16;5094577;28;20056;-79
2022/04/02 08:05:05;;;;;;;12.20;6.00;;;;;;;2.85;64.64;98668.41;5094527;28;20024;-79
2022/04/02 08:07:32;;;;;;;10.80;6.30;;;;;;;3.11;64.49;98683.00;5076332;28;20081;-79
2022/04/02 08:09:59;;;;;;;10.65;6.40;;;;;;;3.07;64.53;98670.31;5051730;28;20048;-79
2022/04/02 08:12:25;;;;;;;17.00;8.07;;;;;;;3.29;64.88;98686.75;5051665;28;20033;-79
2022/04/02 08:14:52;;;;;;;13.45;8.13;;;;;;;3.39;64.24;98682.97;5034991;28;20562;-78
2022/04/02 08:17:20;;;;;;;13.98;7.05;;;;;;;3.57;63.62;98678.09;5051433;28;20115;-80
2022/04/02 08:19:49;;;;;;;18.08;10.00;;;;;;;3.74;63.52;98680.94;5051808;28;20036;-80
2022/04/02 08:22:16;;;;;;;16.38;8.18;;;;;;;3.92;62.66;98684.63;5051685;28;20029;-85
2022/04/02 08:24:42;;;;;;;13.45;7.40;;;;;;;3.93;62.90;98688.88;5034777;28;20167;-90
2022/04/02 08:27:42;;;;;;;16.05;8.02;;;;;;;4.02;62.21;98688.56;5035127;28;20094;-79
2022/04/02 08:30:10;;;;;;;17.70;9.27;;;;;;;4.03;63.03;98672.19;4958175;28;20515;-83
2022/04/02 08:32:54;;;;;;;18.60;7.68;;;;;;;4.32;61.15;98689.19;4970512;28;20538;-76
2022/04/02 08:35:28;;;;;;;18.52;9.38;;;;;;;4.18;63.03;98686.28;4972455;28;20035;-76
2022/04/02 08:38:17;;;;;;;8.10;5.72;;;;;;;4.07;61.33;98683.25;4972827;28;20042;-77
2022/04/02 08:41:07;;;;;;;11.10;6.40;;;;;;;4.04;61.87;98703.94;4972787;28;20047;-76
2022/04/02 08:44:04;;;;;;;13.15;8.07;;;;;;;3.98;62.14;98712.75;4972907;28;20031;-77
2022/04/02 08:47:06;;;;;;;12.98;7.43;;;;;;;4.00;63.04;98705.78;4972184;28;20463;-76
2022/04/02 08:49:32;;;;;;;9.02;6.45;;;;;;;4.18;63.45;98719.78;4972438;28;20113;-78
2022/04/02 08:52:15;;;;;;;10.65;5.93;;;;;;;4.35;62.84;98696.81;4972537;28;20938;-74
2022/04/02 08:55:08;;;;;;;10.57;5.95;;;;;;;4.34;62.63;98697.72;4972658;28;20050;-74
2022/04/02 08:57:57;;;;;;;13.57;8.75;;;;;;;4.45;61.49;98717.94;4972319;28;20189;-74
2022/04/02 09:00:27;;;;;;;11.52;7.38;;;;;;;4.21;61.27;98712.78;4914692;29;20523;-75
2022/04/02 09:03:09;;;;;;;;;;;;;;;3.99;61.46;98720.41;4915432;29;20044;-74
2022/04/02 09:05:38;;;;;;;16.40;8.77;;;;;;;3.90;61.78;98720.72;4914618;29;19925;-74
2022/04/02 09:08:15;;;;;;;19.00;9.45;;;;;;;3.79;62.69;98722.81;4985833;28;20089;-75
2022/04/02 09:10:49;;;;;;;10.93;7.80;;;;;;;3.63;62.66;98719.09;4991644;28;20042;-73
2022/04/02 09:13:37;;;;;;;29.58;15.50;;;;;;;3.64;62.96;98720.78;4991436;28;20030;-74
2022/04/02 09:16:06;;;;;;;36.15;14.68;;;;;;;3.58;62.42;98710.66;4991579;28;20029;-74
2022/04/02 09:18:51;;;;;;;30.17;11.77;;;;;;;3.68;62.77;98720.63;4991344;28;20121;-74
2022/04/02 09:21:44;;;;;;;21.73;10.40;;;;;;;3.72;63.11;98716.22;4996429;28;20066;-74
2022/04/02 09:24:26;;;;;;;24.67;11.70;;;;;;;3.88;62.81;98725.13;5008319;28;20135;-74
2022/04/02 09:27:16;;;;;;;22.67;10.18;;;;;;;4.01;62.59;98722.94;4994303;28;20050;-74
2022/04/02 09:30:00;;;;;;;13.30;7.90;;;;;;;4.10;62.68;98730.34;5010950;28;20041;-74
2022/04/02 09:32:43;;;;;;;9.10;6.97;;;;;;;4.25;61.71;98731.53;5010496;28;20867;-74
2022/04/02 09:35:39;;;;;;;11.85;6.72;;;;;;;4.39;60.28;98724.16;5010827;28;20038;-74
2022/04/02 09:38:29;;;;;;;12.52;7.85;;;;;;;4.49;61.07;98725.50;5075203;28;20105;-74
2022/04/02 09:41:10;;;;;;;11.30;5.97;;;;;;;4.70;61.45;98730.75;5093001;28;20036;-74
2022/04/02 09:43:38;;;;;;;;;;;;;;;4.82;60.20;98729.47;5093342;28;20028;-74
2022/04/02 09:46:24;;;;;;;10.93;6.75;;;;;;;4.84;60.29;98736.22;5092633;28;19915;-74
2022/04/02 09:49:00;;;;;;;13.43;6.55;;;;;;;4.92;59.76;98733.38;5092900;28;20020;-74
2022/04/02 09:51:34;;;;;;;13.00;7.03;;;;;;;5.10;59.76;98716.31;5092775;28;20031;-74
2022/04/02 09:54:10;;;;;;;13.63;7.68;;;;;;;5.02;59.13;98732.13;5092922;28;20027;-74
2022/04/02 09:56:41;;;;;;;12.57;7.63;;;;;;;4.97;59.87;98719.41;5092484;28;20494;-74
2022/04/02 09:59:30;;;;;;;12.57;7.28;;;;;;;5.36;60.44;98731.63;5092762;28;20039;-74
2022/04/02 10:02:05;;;;;;;11.48;7.13;;;;;;;5.47;59.02;98736.34;5092959;28;20028;-74
2022/04/02 10:04:48;;;;;;;11.55;6.50;;;;;;;5.35;58.63;98719.63;5092320;28;20560;-74
2022/04/02 10:07:42;;;;;;;9.52;6.65;;;;;;;5.28;57.54;98730.25;5092532;28;20448;-74
2022/04/02 10:10:09;;;;;;;13.35;6.93;;;;;;;5.15;58.03;98722.16;4990524;28;20066;-74
2022/04/02 10:12:37;;;;;;;9.90;6.60;;;;;;;5.22;57.93;98728.75;4990357;28;20038;-74
2022/04/02 10:15:03;;;;;;;9.65;6.80;;;;;;;5.16;57.11;98726.41;4990583;28;20540;-74
2022/04/02 10:17:31;;;;;;;11.15;6.30;;;;;;;5.16;56.99;98737.59;4989828;28;20478;-74
2022/04/02 10:19:58;;;;;;;11.18;6.50;;;;;;;5.09;57.16;98722.38;4990500;28;20034;-74
2022/04/02 10:22:44;;;;;;;15.88;6.30;;;;;;;5.19;55.97;98721.97;4973815;28;20046;-74
2022/04/02 10:25:11;;;;;;;10.52;6.50;;;;;;;5.24;56.74;98724.38;4990341;28;20502;-74
2022/04/02 10:27:40;;;;;;;11.18;6.47;;;;;;;5.23;56.83;98720.97;4989914;28;20371;-74
2022/04/02 10:30:14;;;;;;;14.13;8.00;;;;;;;5.35;56.69;98717.06;4990384;28;20034;-74
2022/04/02 10:35:53;;;;;;;15.30;7.47;;;;;;;5.51;55.69;98719.84;4990314;28;20041;-74
2022/04/02 10:38:36;;;;;;;12.63;8.00;;;;;;;5.45;55.58;98715.78;4990252;28;20067;-74
2022/04/02 10:41:18;;;;;;;16.88;6.30;;;;;;;5.49;54.96;98721.66;4990157;28;20529;-74
2022/04/02 10:43:44;;;;;;;10.98;7.45;;;;;;;5.69;56.03;98723.44;4989979;28;20045;-72
2022/04/02 10:46:09;;;;;;;13.43;6.97;;;;;;;5.66;54.47;98739.88;4995254;28;20050;-73
2022/04/02 10:48:47;;;;;;;9.23;6.47;;;;;;;5.66;54.90;98747.63;5091797;28;20028;-74
2022/04/02 10:51:13;;;;;;;14.40;7.22;;;;;;;5.63;55.21;98724.50;5091963;28;20028;-74
2022/04/02 10:53:43;;;;;;;10.15;6.55;;;;;;;5.68;54.82;98732.06;5091586;28;20115;-74
2022/04/02 10:56:27;;;;;;;16.55;8.95;;;;;;;5.68;55.12;98742.38;5092045;28;20028;-74
2022/04/02 10:58:54;;;;;;;14.38;7.50;;;;;;;5.66;54.13;98723.53;5092027;28;20022;-74
2022/04/02 11:01:25;;;;;;;12.55;6.30;;;;;;;5.61;54.99;98735.81;5091784;28;20486;-73
2022/04/02 11:03:56;;;;;;;11.82;6.32;;;;;;;5.68;55.06;98725.16;5091705;28;20371;-73
2022/04/02 11:06:48;;;;;;;12.38;7.20;;;;;;;5.90;54.07;98730.28;5091419;28;20616;-74
2022/04/02 11:09:41;;;;;;;11.18;6.47;;;;;;;5.97;53.42;98723.13;5092031;28;20620;-74
2022/04/02 11:12:15;;;;;;;12.30;7.32;;;;;;;6.05;53.94;98715.88;5091937;28;20032;-77
2022/04/02 11:14:47;;;;;;;13.27;6.75;;;;;;;6.16;52.68;98721.44;5091500;28;20417;-77
2022/04/02 11:17:33;;;;;;;16.58;6.35;;;;;;;5.90;52.71;98696.69;5091713;28;20530;-76
2022/04/02 11:20:01;;;;;;;17.52;6.55;;;;;;;6.08;53.38;98728.69;5091809;28;20413;-76
2022/04/02 11:22:43;;;;;;;13.63;7.15;;;;;;;6.08;53.36;98709.75;5091399;28;20103;-75
2022/04/02 11:25:16;;;;;;;8.70;5.80;;;;;;;6.03;52.43;98715.13;5091705;28;20353;-75
2022/04/02 11:27:48;;;;;;;17.80;6.32;;;;;;;6.07;52.31;98724.41;5091607;28;20075;-76
2022/04/02 11:30:16;;;;;;;12.73;7.13;;;;;;;6.00;52.94;98708.31;5095483;28;20439;-76
2022/04/02 11:32:44;;;;;;;12.35;6.50;;;;;;;6.10;51.06;98703.59;5095187;28;20868;-76
2022/04/02 11:35:14;;;;;;;24.63;8.75;;;;;;;6.15;50.58;98713.72;5095491;28;20024;-75
2022/04/02 11:38:08;;;;;;;25.52;12.68;;;;;;;6.24;49.40;98723.69;5095443;28;20464;-78
2022/04/02 11:40:38;;;;;;;16.48;6.80;;;;;;;6.26;48.43;98729.63;4993174;28;20528;-78
2022/04/02 11:43:05;;;;;;;25.55;9.52;;;;;;;6.27;47.18;98714.94;4976720;28;20042;-79
2022/04/02 11:45:32;;;;;;;21.95;9.68;;;;;;;6.30;47.71;98725.16;4992712;28;20409;-78